createdAt,value
2022-12-16T00:01:24.655Z,5.33
2022-12-16T00:03:55.212Z,2.80
2022-12-16T00:06:25.767Z,3.65
2022-12-16T00:08:55.050Z,4.00
2022-12-16T00:11:23.377Z,4.88
2022-12-16T00:13:51.642Z,4.55
2022-12-16T00:16:23.769Z,4.07
2022-12-16T00:18:52.174Z,3.78
2022-12-16T00:21:20.632Z,4.28
2022-12-16T00:23:50.174Z,2.92
2022-12-16T00:26:18.480Z,3.78
2022-12-16T00:28:46.651Z,4.63
2022-12-16T00:31:14.941Z,4.32
2022-12-16T00:33:43.331Z,3.55
2022-12-16T00:36:11.551Z,4.28
2022-12-16T00:38:40.158Z,4.05
2022-12-16T00:41:09.722Z,5.13
2022-12-16T00:43:37.937Z,4.28
2022-12-16T00:46:06.195Z,4.45
2022-12-16T00:48:34.470Z,3.67
2022-12-16T00:51:02.654Z,3.83
2022-12-16T00:53:31.215Z,4.20
2022-12-16T00:56:06.830Z,4.47
2022-12-16T00:58:36.394Z,3.53
2022-12-16T01:01:05.249Z,3.13
2022-12-16T01:03:33.684Z,3.30
2022-12-16T01:06:02.276Z,4.25
2022-12-16T01:08:30.549Z,5.13
2022-12-16T01:10:59.986Z,4.63
2022-12-16T01:13:28.539Z,4.97
2022-12-16T01:16:01.144Z,3.38
2022-12-16T01:18:29.364Z,3.78
2022-12-16T01:21:03.964Z,3.38
2022-12-16T01:23:32.372Z,3.97
2022-12-16T01:26:01.510Z,4.72
2022-12-16T01:28:29.727Z,4.70
2022-12-16T01:31:01.611Z,4.95
2022-12-16T01:33:30.627Z,4.07
2022-12-16T01:36:02.894Z,3.47
2022-12-16T01:38:31.248Z,4.88
2022-12-16T01:40:59.496Z,4.72
2022-12-16T01:43:28.589Z,6.82
2022-12-16T01:45:58.483Z,4.30
2022-12-16T01:48:33.102Z,5.70
2022-12-16T01:51:03.236Z,3.90
2022-12-16T01:53:32.193Z,5.38
2022-12-16T01:56:01.473Z,3.58
2022-12-16T01:58:30.922Z,6.70
2022-12-16T02:00:59.480Z,6.25
2022-12-16T02:03:28.045Z,5.47
2022-12-16T02:05:59.151Z,4.25
2022-12-16T02:08:27.319Z,3.38
2022-12-16T02:11:03.609Z,3.67
2022-12-16T02:13:35.909Z,5.57
2022-12-16T02:16:13.896Z,3.70
2022-12-16T02:18:49.324Z,4.00
2022-12-16T02:21:33.421Z,4.05
2022-12-16T02:24:19.230Z,3.65
2022-12-16T02:27:08.381Z,3.67
2022-12-16T02:29:51.765Z,5.55
2022-12-16T02:32:24.878Z,5.80
2022-12-16T02:34:57.376Z,4.43
2022-12-16T02:37:33.447Z,7.95
2022-12-16T02:40:02.247Z,6.90
2022-12-16T02:42:32.163Z,4.53
2022-12-16T02:45:03.331Z,5.80
2022-12-16T02:47:33.309Z,3.97
2022-12-16T02:50:01.564Z,5.10
2022-12-16T02:52:31.678Z,4.25
2022-12-16T02:55:01.447Z,3.83
2022-12-16T02:57:40.633Z,5.22
2022-12-16T03:00:12.585Z,5.57
2022-12-16T03:02:48.068Z,4.50
2022-12-16T03:05:18.549Z,3.83
2022-12-16T03:07:47.150Z,4.15
2022-12-16T03:10:18.033Z,5.13
2022-12-16T03:12:46.887Z,3.80
2022-12-16T03:15:16.660Z,4.05
2022-12-16T03:17:48.059Z,3.95
2022-12-16T03:20:18.380Z,5.32
2022-12-16T03:22:48.196Z,4.88
2022-12-16T03:25:16.951Z,3.03
2022-12-16T03:27:48.692Z,3.92
2022-12-16T03:30:19.146Z,3.17
2022-12-16T03:32:50.284Z,5.88
2022-12-16T03:35:20.741Z,3.95
2022-12-16T03:37:49.920Z,3.35
2022-12-16T03:40:18.286Z,5.28
2022-12-16T03:42:46.627Z,4.38
2022-12-16T03:45:17.816Z,3.88
2022-12-16T03:47:51.790Z,3.05
2022-12-16T03:50:21.334Z,2.53
2022-12-16T03:52:49.510Z,4.32
2022-12-16T03:55:17.679Z,5.15
2022-12-16T03:57:45.887Z,4.28
2022-12-16T04:00:15.003Z,3.95
2022-12-16T04:02:43.419Z,3.25
2022-12-16T04:05:13.201Z,4.80
2022-12-16T04:07:41.371Z,3.92
2022-12-16T04:10:10.102Z,5.97
2022-12-16T04:12:56.157Z,3.38
2022-12-16T04:15:42.072Z,3.25
2022-12-16T04:18:32.653Z,4.13
2022-12-16T04:21:20.398Z,3.03
2022-12-16T04:24:15.762Z,4.38
2022-12-16T04:26:57.808Z,4.45
2022-12-16T04:29:26.023Z,3.38
2022-12-16T04:31:54.220Z,4.55
2022-12-16T04:34:29.098Z,3.92
2022-12-16T04:37:17.085Z,3.30
2022-12-16T04:40:03.061Z,3.05
2022-12-16T04:42:48.885Z,3.28
2022-12-16T04:45:34.946Z,5.25
2022-12-16T04:48:21.943Z,3.25
2022-12-16T04:51:07.742Z,2.95
2022-12-16T04:53:55.107Z,1.95
2022-12-16T04:56:41.147Z,3.88
2022-12-16T04:59:38.605Z,4.43
2022-12-16T05:02:24.716Z,1.92
2022-12-16T05:05:10.874Z,1.92
2022-12-16T05:07:57.009Z,3.05
2022-12-16T05:10:44.180Z,1.90
2022-12-16T05:13:30.252Z,3.85
2022-12-16T05:16:16.299Z,3.10
2022-12-16T05:19:02.405Z,6.80
2022-12-16T05:21:48.260Z,6.75
2022-12-16T05:24:34.234Z,7.45
2022-12-16T05:27:21.417Z,5.95
2022-12-16T05:30:07.469Z,4.35
2022-12-16T05:32:53.634Z,4.57
2022-12-16T05:35:41.631Z,2.47
2022-12-16T05:38:27.667Z,4.18
2022-12-16T05:41:13.714Z,1.85
2022-12-16T05:44:01.140Z,3.67
2022-12-16T05:46:47.401Z,4.88
2022-12-16T05:49:33.255Z,3.47
2022-12-16T05:52:19.114Z,4.68
2022-12-16T05:55:05.126Z,3.90
2022-12-16T05:57:59.531Z,4.57
2022-12-16T06:00:46.935Z,2.92
2022-12-16T06:03:33.501Z,5.55
2022-12-16T06:06:19.615Z,4.82
2022-12-16T06:09:05.658Z,2.20
2022-12-16T06:11:51.532Z,2.15
2022-12-16T06:14:37.565Z,2.75
2022-12-16T06:17:24.778Z,2.85
2022-12-16T06:20:10.809Z,3.30
2022-12-16T06:22:56.770Z,2.47
2022-12-16T06:25:42.703Z,4.63
2022-12-16T06:28:28.738Z,3.38
2022-12-16T06:31:14.954Z,3.00
2022-12-16T06:34:02.461Z,6.03
2022-12-16T06:36:48.363Z,2.53
2022-12-16T06:39:34.448Z,3.75
2022-12-16T06:42:20.500Z,4.53
2022-12-16T06:45:06.604Z,4.80
2022-12-16T06:47:52.728Z,3.08
2022-12-16T06:50:44.704Z,2.90
2022-12-16T06:53:33.607Z,2.83
2022-12-16T06:56:19.860Z,2.65
2022-12-16T06:59:05.788Z,2.65
2022-12-16T07:01:51.857Z,2.28
2022-12-16T07:04:37.852Z,4.57
2022-12-16T07:07:24.472Z,3.83
2022-12-16T07:10:10.495Z,3.33
2022-12-16T07:12:56.475Z,5.20
2022-12-16T07:15:42.698Z,6.05
2022-12-16T07:18:28.605Z,3.22
2022-12-16T07:21:14.665Z,1.50
2022-12-16T07:24:02.039Z,2.92
2022-12-16T07:26:47.910Z,3.10
2022-12-16T07:29:33.851Z,5.07
2022-12-16T07:32:19.748Z,2.45
2022-12-16T07:35:05.863Z,5.30
2022-12-16T07:37:51.107Z,3.37
2022-12-16T07:40:38.470Z,5.50
2022-12-16T07:43:24.422Z,3.58
2022-12-16T07:46:10.469Z,3.83
2022-12-16T07:48:56.517Z,6.05
2022-12-16T07:51:42.553Z,2.53
2022-12-16T07:54:33.910Z,2.47
2022-12-16T07:57:21.224Z,5.10
2022-12-16T08:00:07.227Z,5.37
2022-12-16T08:02:53.500Z,4.13
2022-12-16T08:05:42.108Z,3.17
2022-12-16T08:08:28.014Z,4.77
2022-12-16T08:11:13.934Z,2.50
2022-12-16T08:14:00.185Z,5.70
2022-12-16T08:16:46.390Z,6.23
2022-12-16T08:19:32.223Z,3.87
2022-12-16T08:22:18.310Z,7.07
2022-12-16T08:25:04.031Z,5.00
2022-12-16T08:27:50.062Z,3.83
2022-12-16T08:30:37.404Z,8.33
2022-12-16T08:33:23.264Z,7.20
2022-12-16T08:36:09.241Z,4.03
2022-12-16T08:38:55.410Z,7.70
2022-12-16T08:41:41.055Z,3.30
2022-12-16T08:44:27.039Z,4.80
2022-12-16T08:47:14.502Z,5.03
2022-12-16T08:50:02.067Z,4.23
2022-12-16T08:52:49.043Z,6.70
2022-12-16T08:55:35.658Z,6.60
2022-12-16T08:58:21.575Z,5.80
2022-12-16T09:01:08.202Z,7.30
2022-12-16T09:03:56.721Z,6.03
2022-12-16T09:06:42.933Z,6.33
2022-12-16T09:09:28.970Z,8.47
2022-12-16T09:12:14.945Z,12.03
2022-12-16T09:15:01.113Z,10.33
2022-12-16T09:17:47.191Z,16.63
2022-12-16T09:20:34.693Z,11.17
2022-12-16T09:23:21.475Z,13.00
2022-12-16T09:26:07.433Z,18.63
2022-12-16T09:28:53.368Z,15.53
2022-12-16T09:31:40.717Z,16.23
2022-12-16T09:34:26.550Z,16.23
2022-12-16T09:37:13.996Z,16.40
2022-12-16T09:40:14.665Z,18.07
2022-12-16T09:43:03.301Z,15.90
2022-12-16T09:45:52.964Z,18.43
2022-12-16T09:48:43.913Z,21.57
2022-12-16T09:51:31.176Z,20.80
2022-12-16T09:54:33.992Z,19.37
2022-12-16T09:57:20.544Z,23.27
2022-12-16T10:00:11.682Z,21.50
2022-12-16T10:03:01.885Z,25.20
2022-12-16T10:05:57.473Z,24.87
2022-12-16T10:08:49.098Z,22.10
2022-12-16T10:11:38.425Z,21.97
2022-12-16T10:14:27.365Z,25.50
2022-12-16T10:17:26.307Z,26.37
2022-12-16T10:20:16.368Z,23.97
2022-12-16T10:23:06.343Z,21.83
2022-12-16T10:25:55.470Z,26.10
2022-12-16T10:28:46.691Z,20.53
2022-12-16T10:31:34.921Z,21.73
2022-12-16T10:34:21.269Z,26.53
2022-12-16T10:37:13.196Z,24.50
2022-12-16T10:40:02.792Z,21.77
2022-12-16T10:43:01.179Z,19.40
2022-12-16T10:45:50.329Z,18.43
2022-12-16T10:48:47.796Z,18.83
2022-12-16T10:51:38.260Z,14.63
2022-12-16T10:54:34.465Z,15.13
2022-12-16T10:57:24.056Z,18.57
2022-12-16T11:00:10.200Z,15.80
2022-12-16T11:02:57.374Z,15.33
2022-12-16T11:05:49.698Z,14.83
2022-12-16T11:08:43.121Z,15.53
2022-12-16T11:11:32.958Z,18.43
2022-12-16T11:14:33.098Z,16.90
2022-12-16T11:17:31.068Z,17.23
2022-12-16T11:20:27.538Z,19.10
2022-12-16T11:23:25.783Z,24.77
2022-12-16T11:26:22.603Z,23.33
2022-12-16T11:29:21.168Z,28.77
2022-12-16T11:32:09.623Z,29.03
2022-12-16T11:34:55.672Z,30.47
2022-12-16T11:37:44.159Z,31.77
2022-12-16T11:40:33.587Z,28.20
2022-12-16T11:43:20.628Z,23.93
2022-12-16T11:46:07.111Z,24.30
2022-12-16T11:48:56.233Z,31.83
2022-12-16T11:51:44.205Z,35.53
2022-12-16T11:54:39.809Z,39.30
2022-12-16T11:57:31.442Z,38.47
2022-12-16T12:00:18.424Z,33.67
2022-12-16T12:03:06.975Z,38.30
2022-12-16T12:05:56.181Z,30.43
2022-12-16T12:08:44.794Z,33.03
2022-12-16T12:11:36.468Z,33.03
2022-12-16T12:14:28.138Z,33.90
2022-12-16T12:17:17.537Z,47.10
2022-12-16T12:20:08.509Z,53.27
2022-12-16T12:22:55.995Z,51.73
2022-12-16T12:25:44.932Z,51.33
2022-12-16T12:28:39.125Z,62.47
2022-12-16T12:31:42.649Z,54.93
2022-12-16T12:34:38.947Z,52.30
2022-12-16T12:37:27.710Z,60.70
2022-12-16T12:40:17.634Z,60.60
2022-12-16T12:43:04.859Z,55.73
2022-12-16T12:46:10.533Z,57.63
2022-12-16T12:49:00.990Z,55.67
2022-12-16T12:51:49.708Z,61.60
2022-12-16T12:54:39.166Z,59.13
2022-12-16T12:57:26.377Z,65.83
2022-12-16T13:00:15.009Z,64.70
2022-12-16T13:03:06.840Z,60.90
2022-12-16T13:05:54.844Z,63.83
2022-12-16T13:08:50.561Z,61.07
2022-12-16T13:11:36.595Z,54.97
2022-12-16T13:14:42.806Z,54.37
2022-12-16T13:17:29.807Z,55.90
2022-12-16T13:20:16.919Z,56.37
2022-12-16T13:23:03.699Z,49.07
2022-12-16T13:26:02.351Z,46.97
2022-12-16T13:28:50.100Z,49.50
2022-12-16T13:31:36.610Z,49.37
2022-12-16T13:34:25.720Z,45.10
2022-12-16T13:37:13.150Z,48.77
2022-12-16T13:39:59.928Z,49.83
2022-12-16T13:42:52.590Z,42.07
2022-12-16T13:45:48.200Z,43.00
2022-12-16T13:48:51.466Z,51.88
2022-12-16T13:51:52.152Z,55.87
2022-12-16T13:54:39.978Z,52.47
2022-12-16T13:57:25.796Z,50.43
2022-12-16T14:00:12.330Z,54.33
2022-12-16T14:02:59.856Z,45.70
2022-12-16T14:05:47.823Z,48.63
2022-12-16T14:08:35.246Z,52.07
2022-12-16T14:11:23.069Z,55.57
2022-12-16T14:14:12.489Z,56.43
2022-12-16T14:17:04.788Z,48.17
2022-12-16T14:19:53.288Z,52.10
2022-12-16T14:22:53.885Z,61.03
2022-12-16T14:25:40.983Z,56.23
2022-12-16T14:28:36.690Z,53.27
2022-12-16T14:31:23.739Z,57.27
2022-12-16T14:34:12.801Z,54.90
2022-12-16T14:36:59.244Z,56.60
2022-12-16T14:39:47.899Z,62.63
2022-12-16T14:42:38.697Z,59.80
2022-12-16T14:45:38.665Z,63.10
2022-12-16T14:48:32.171Z,62.07
2022-12-16T14:51:32.542Z,67.63
2022-12-16T14:54:29.063Z,62.27
2022-12-16T14:57:12.853Z,59.20
2022-12-16T14:59:58.892Z,61.70
2022-12-16T15:02:47.944Z,64.90
2022-12-16T15:05:34.356Z,71.83
2022-12-16T15:08:22.553Z,84.20
2022-12-16T15:11:08.337Z,70.67
2022-12-16T15:14:00.359Z,77.40
2022-12-16T15:16:50.535Z,75.53
2022-12-16T15:19:39.122Z,77.47
2022-12-16T15:22:25.127Z,82.47
2022-12-16T15:25:11.185Z,77.73
2022-12-16T15:27:57.612Z,69.63
2022-12-16T15:30:53.936Z,65.43
2022-12-16T15:33:40.250Z,75.77
2022-12-16T15:36:43.447Z,71.07
2022-12-16T15:39:30.384Z,72.83
2022-12-16T15:42:16.875Z,63.27
2022-12-16T15:45:06.732Z,64.90
2022-12-16T15:47:54.767Z,55.60
2022-12-16T15:50:43.127Z,59.57
2022-12-16T15:53:46.209Z,58.43
2022-12-16T15:56:37.026Z,51.13
2022-12-16T15:59:32.862Z,51.93
2022-12-16T16:02:24.600Z,53.67
2022-12-16T16:05:12.808Z,59.07
2022-12-16T16:08:03.490Z,68.10
2022-12-16T16:10:51.288Z,67.03
2022-12-16T16:13:37.438Z,77.93
2022-12-16T16:16:35.282Z,68.90
2022-12-16T16:19:21.350Z,69.70
2022-12-16T16:22:07.375Z,55.17
2022-12-16T16:24:53.370Z,70.37
2022-12-16T16:27:40.647Z,73.40
2022-12-16T16:30:29.588Z,74.27
2022-12-16T16:33:15.746Z,71.13
2022-12-16T16:36:01.728Z,67.30
2022-12-16T16:38:59.243Z,72.20
2022-12-16T16:41:45.204Z,70.87
2022-12-16T16:44:32.471Z,65.47
2022-12-16T16:47:18.532Z,72.77
2022-12-16T16:50:04.904Z,64.87
2022-12-16T16:52:51.321Z,74.43
2022-12-16T16:55:37.976Z,81.37
2022-12-16T16:58:25.479Z,70.77
2022-12-16T17:01:12.980Z,73.63
2022-12-16T17:03:59.032Z,68.83
2022-12-16T17:06:44.893Z,65.93
2022-12-16T17:09:31.105Z,71.80
2022-12-16T17:12:17.319Z,74.13
2022-12-16T17:15:03.155Z,74.73
2022-12-16T17:17:52.809Z,75.63
2022-12-16T17:20:38.915Z,74.67
2022-12-16T17:23:24.632Z,68.77
2022-12-16T17:26:10.664Z,71.63
2022-12-16T17:28:52.752Z,75.53
2022-12-16T17:31:38.946Z,58.97
2022-12-16T17:34:26.296Z,60.83
2022-12-16T17:37:12.226Z,62.07
2022-12-16T17:39:58.283Z,63.17
2022-12-16T17:42:46.606Z,66.23
2022-12-16T17:45:32.691Z,62.17
2022-12-16T17:48:18.673Z,63.43
2022-12-16T17:51:06.110Z,67.23
2022-12-16T17:53:57.093Z,64.93
2022-12-16T17:56:46.247Z,57.70
2022-12-16T17:59:32.134Z,62.17
2022-12-16T18:02:18.196Z,64.80
2022-12-16T18:05:15.522Z,62.43
2022-12-16T18:08:02.611Z,66.10
2022-12-16T18:10:48.717Z,54.57
2022-12-16T18:13:35.259Z,56.80
2022-12-16T18:16:21.377Z,57.07
2022-12-16T18:19:08.408Z,68.30
2022-12-16T18:21:54.408Z,60.13
2022-12-16T18:24:48.079Z,54.70
2022-12-16T18:27:34.452Z,64.17
2022-12-16T18:30:34.957Z,61.20
2022-12-16T18:33:20.738Z,57.50
2022-12-16T18:36:06.512Z,62.50
2022-12-16T18:38:52.603Z,56.47
2022-12-16T18:41:40.553Z,56.43
2022-12-16T18:44:37.973Z,58.57
2022-12-16T18:47:23.738Z,60.33
2022-12-16T18:50:09.587Z,57.90
2022-12-16T18:52:55.552Z,58.47
2022-12-16T18:55:41.788Z,59.27
2022-12-16T18:58:50.223Z,56.23
2022-12-16T19:01:34.968Z,57.00
2022-12-16T19:04:20.885Z,58.87
2022-12-16T19:07:06.890Z,58.10
2022-12-16T19:09:52.904Z,61.70
2022-12-16T19:12:38.890Z,60.93
2022-12-16T19:15:26.265Z,56.80
2022-12-16T19:18:12.312Z,55.37
2022-12-16T19:20:58.427Z,60.43
2022-12-16T19:23:46.783Z,58.63
2022-12-16T19:26:32.816Z,57.30
2022-12-16T19:29:18.636Z,59.53
2022-12-16T19:32:06.075Z,52.83
2022-12-16T19:34:52.172Z,50.37
2022-12-16T19:37:38.232Z,56.57
2022-12-16T19:40:24.500Z,57.87
2022-12-16T19:43:10.613Z,49.40
2022-12-16T19:45:56.724Z,59.03
2022-12-16T19:48:44.214Z,57.57
2022-12-16T19:51:30.277Z,55.63
2022-12-16T19:54:16.182Z,48.83
2022-12-16T19:57:02.132Z,52.40
2022-12-16T19:59:48.118Z,53.97
2022-12-16T20:02:34.272Z,51.83
2022-12-16T20:05:21.667Z,56.87
2022-12-16T20:08:07.665Z,45.37
2022-12-16T20:14:00.483Z,51.73
2022-12-16T20:16:46.334Z,48.50
2022-12-16T20:19:32.392Z,52.37
2022-12-16T20:22:19.527Z,50.37
2022-12-16T20:25:05.701Z,49.53
2022-12-16T20:27:51.831Z,49.23
2022-12-16T20:30:38.021Z,46.87
2022-12-16T20:33:23.926Z,44.27
2022-12-16T20:36:16.115Z,48.17
2022-12-16T20:39:03.609Z,42.17
2022-12-16T20:41:49.644Z,42.17
2022-12-16T20:44:35.440Z,46.97
2022-12-16T20:47:21.365Z,51.70
2022-12-16T20:50:07.296Z,50.40
2022-12-16T20:52:53.548Z,48.33
2022-12-16T20:55:40.960Z,45.43
2022-12-16T20:58:27.029Z,49.57
2022-12-16T21:01:13.751Z,51.80
2022-12-16T21:03:59.798Z,48.43
2022-12-16T21:06:46.763Z,48.20
2022-12-16T21:09:32.909Z,47.97
2022-12-16T21:12:20.250Z,49.13
2022-12-16T21:15:06.235Z,49.13
2022-12-16T21:17:52.497Z,48.00
2022-12-16T21:20:40.358Z,45.43
2022-12-16T21:23:26.891Z,44.70
2022-12-16T21:26:12.982Z,45.00
2022-12-16T21:29:00.325Z,49.47
2022-12-16T21:31:46.213Z,57.20
2022-12-16T21:34:32.178Z,54.83
2022-12-16T21:37:19.043Z,51.67
2022-12-16T21:40:05.112Z,44.20
2022-12-16T21:42:51.195Z,42.70
2022-12-16T21:45:38.863Z,49.33
2022-12-16T21:48:24.807Z,43.50
2022-12-16T21:51:11.484Z,47.50
2022-12-16T21:53:57.458Z,46.37
2022-12-16T21:56:43.601Z,47.03
2022-12-16T21:59:29.695Z,39.93
2022-12-16T22:02:17.050Z,43.90
2022-12-16T22:05:03.164Z,44.43
2022-12-16T22:07:49.065Z,46.63
2022-12-16T22:10:35.043Z,47.07
2022-12-16T22:13:21.187Z,41.13
2022-12-16T22:16:14.297Z,48.93
2022-12-16T22:19:01.753Z,46.20
2022-12-16T22:21:47.613Z,46.97
2022-12-16T22:24:33.696Z,47.33
2022-12-16T22:27:19.625Z,48.63
2022-12-16T22:30:05.610Z,47.43
2022-12-16T22:32:51.583Z,43.73
2022-12-16T22:35:39.385Z,47.00
2022-12-16T22:38:25.358Z,45.00
2022-12-16T22:41:14.328Z,42.70
2022-12-16T22:44:00.130Z,44.03
2022-12-16T22:46:46.241Z,45.23
2022-12-16T22:49:32.267Z,53.53
2022-12-16T22:52:19.619Z,51.47
2022-12-16T22:55:05.450Z,52.13
2022-12-16T22:57:53.463Z,50.53
2022-12-16T23:00:39.789Z,51.17
2022-12-16T23:03:25.908Z,44.57
2022-12-16T23:06:11.932Z,46.63
2022-12-16T23:08:59.211Z,44.17
2022-12-16T23:11:50.591Z,47.93
2022-12-16T23:14:42.462Z,47.13
2022-12-16T23:17:28.672Z,45.77
2022-12-16T23:20:14.711Z,49.67
2022-12-16T23:23:00.580Z,50.80
2022-12-16T23:25:47.888Z,46.40
2022-12-16T23:28:33.906Z,44.90
2022-12-16T23:31:19.944Z,49.90
2022-12-16T23:34:06.041Z,47.23
2022-12-16T23:36:51.936Z,51.47
2022-12-16T23:39:39.412Z,47.13
2022-12-16T23:42:26.918Z,45.70
2022-12-16T23:45:12.814Z,45.87
2022-12-16T23:47:58.821Z,52.50
2022-12-16T23:50:44.778Z,46.47
2022-12-16T23:53:30.614Z,48.70
2022-12-16T23:56:17.683Z,47.00
2022-12-16T23:59:05.914Z,44.87
